Montauban, France

4:55 PM CET on March 24, 2017 (GMT +0100)
Route de Saint-Nauphary | | Change Station

Elev 331 ft 43.97 °N, 1.42 °E | Updated 11 minutes ago

Rain
Rain
50.4 °F
Feels Like 50.4 °F
N
0.6
Wind Variable Wind from West
Gusts 1.2 mph

Today
High -- | Low -- °F
--% Chance of Precip.
Yesterday
High -- | Low -- °F
Precip. -- in
Pressure 30.04 in
Visibility 6.2 miles
Clouds Few 4900 ft
Mostly Cloudy 6200 ft
Overcast 7200 ft
Dew Point 47 °F
Humidity 87%
Rainfall 0.02 in
Snow Depth Not available.
6:50 AM 7:11 PM
Waning Crescent, 14% visible
METAR LFBO 241530Z AUTO 06009KT 030V090 9999 -RA FEW049 BKN062 OVC072 09/05 Q1017 TEMPO 4000 RA BKN009 SCT050TCU
Pressure 30.04 in
Visibility 6.2 miles
Clouds Few 4900 ft
Mostly Cloudy 6200 ft
Overcast 7200 ft
Dew Point 47 °F
Humidity 87%
Rainfall 0.02 in
Snow Depth Not available.
6:50 AM 7:11 PM
Waning Crescent, 14% visible
METAR LFBO 241530Z AUTO 06009KT 030V090 9999 -RA FEW049 BKN062 OVC072 09/05 Q1017 TEMPO 4000 RA BKN009 SCT050TCU

Get Severe Weather Alerts

Thanks for signing up!

Be on the lookout for a verification email in your inbox.

You'll start receiving the daily forecast at 8 AM.

×

10-Day Weather Forecast

×

Almanac

Astronomy

Mar. 24, 2017 Rise Set
Actual Time
Civil Twilight
Nautical Twilight
Astronomical Twilight
Moon
Length of Visible Light
Length of Day
Tomorrow will be .
, % of the Moon is Illuminated

Today's Extremes

Country Highs Country Lows

Community

WunderPhotos

Upload Photos

1,962,540 photos uploaded!

WunderBlog® & News

Nearby

Air Quality

  Air Quality AQ Index Pollutant
Not available.

Snow Depth

Station Depth Elevation

Earthquake Activity

City Distance Mag. Time & Date
Minimum magnitude displayed is 2.5.

Earthquake Activity

City Distance Mag. Time & Date
Minimum magnitude displayed is 2.5.

Coastal Water Temperatures

Place Temperature

Stations

Nearby Weather Stations

Station Location Temp. Windchill Dew Point Humidity Wind Precip. Elev Updated Type